createdAt,value
2019-06-19T00:00:13.313Z,18.10
2019-06-19T00:03:03.182Z,18.10
2019-06-19T00:05:50.098Z,18.10
2019-06-19T00:08:37.597Z,18.00
2019-06-19T00:11:25.174Z,18.20
2019-06-19T00:14:13.368Z,18.30
2019-06-19T00:17:02.601Z,18.30
2019-06-19T00:19:50.165Z,18.20
2019-06-19T00:22:37.738Z,18.30
2019-06-19T00:25:25.529Z,18.30
2019-06-19T00:28:14.064Z,18.40
2019-06-19T00:31:01.650Z,18.40
2019-06-19T00:33:51.548Z,18.30
2019-06-19T00:36:38.149Z,18.30
2019-06-19T00:39:25.672Z,18.30
2019-06-19T00:42:13.101Z,18.20
2019-06-19T00:45:01.154Z,18.20
2019-06-19T00:47:51.121Z,18.30
2019-06-19T00:50:37.810Z,18.30
2019-06-19T00:53:25.479Z,18.30
2019-06-19T00:56:21.675Z,18.30
2019-06-19T00:59:11.117Z,18.20
2019-06-19T01:02:00.824Z,18.30
2019-06-19T01:04:47.609Z,18.50
2019-06-19T01:07:35.101Z,18.70
2019-06-19T01:10:22.826Z,18.80
2019-06-19T01:13:10.869Z,19.00
2019-06-19T01:16:01.334Z,19.10
2019-06-19T01:18:47.627Z,19.20
2019-06-19T01:21:35.117Z,19.20
2019-06-19T01:24:22.581Z,19.20
2019-06-19T01:27:11.743Z,19.20
2019-06-19T01:30:11.432Z,19.20
2019-06-19T01:32:51.196Z,19.10
2019-06-19T01:35:37.984Z,19.10
2019-06-19T01:38:25.779Z,19.00
2019-06-19T01:41:13.549Z,19.00
2019-06-19T01:44:01.427Z,19.10
2019-06-19T01:46:51.400Z,19.10
2019-06-19T01:49:40.880Z,19.10
2019-06-19T01:52:27.645Z,19.10
2019-06-19T01:55:15.126Z,19.30
2019-06-19T01:58:02.233Z,19.30
2019-06-19T02:00:51.746Z,19.30
2019-06-19T02:03:41.307Z,19.30
2019-06-19T02:06:27.478Z,19.10
2019-06-19T02:09:15.247Z,18.90
2019-06-19T02:12:02.621Z,18.70
2019-06-19T02:14:51.055Z,18.50
2019-06-19T02:17:41.308Z,18.40
2019-06-19T02:20:27.450Z,18.40
2019-06-19T02:23:14.990Z,18.50
2019-06-19T02:26:02.980Z,18.50
2019-06-19T02:28:50.723Z,18.50
2019-06-19T02:31:41.759Z,18.50
2019-06-19T02:34:27.382Z,18.40
2019-06-19T02:37:14.987Z,18.40
2019-06-19T02:40:02.168Z,18.30
2019-06-19T02:42:49.310Z,18.30
2019-06-19T02:45:36.947Z,18.20
2019-06-19T02:48:24.377Z,18.20
2019-06-19T02:51:11.842Z,18.20
2019-06-19T02:53:59.417Z,18.10
2019-06-19T02:56:47.126Z,18.20
2019-06-19T02:59:34.590Z,18.30
2019-06-19T03:02:21.840Z,18.20
2019-06-19T03:05:09.983Z,18.30
2019-06-19T03:07:57.691Z,18.40
2019-06-19T03:10:44.868Z,18.40
2019-06-19T03:13:32.576Z,18.40
2019-06-19T03:16:20.366Z,18.40
2019-06-19T03:19:07.817Z,18.40
2019-06-19T03:21:55.763Z,18.30
2019-06-19T03:24:42.917Z,18.30
2019-06-19T03:27:30.477Z,18.20
2019-06-19T03:30:18.524Z,18.20
2019-06-19T03:33:05.742Z,18.30
2019-06-19T03:35:52.877Z,18.30
2019-06-19T03:38:40.901Z,18.40
2019-06-19T03:41:28.046Z,18.50
2019-06-19T03:44:15.647Z,18.40
2019-06-19T03:47:22.349Z,18.40
2019-06-19T03:50:10.418Z,18.40
2019-06-19T03:52:57.895Z,18.30
2019-06-19T03:55:53.457Z,18.30
2019-06-19T03:58:39.926Z,18.30
2019-06-19T04:01:27.742Z,18.30
2019-06-19T04:04:15.288Z,18.30
2019-06-19T04:07:02.507Z,18.30
2019-06-19T04:09:49.942Z,18.30
2019-06-19T04:12:37.902Z,18.30
2019-06-19T04:15:25.696Z,18.30
2019-06-19T04:18:13.054Z,18.30
2019-06-19T04:21:00.979Z,18.30
2019-06-19T04:23:48.411Z,18.30
2019-06-19T04:26:36.316Z,18.30
2019-06-19T04:29:26.008Z,18.30
2019-06-19T04:32:14.566Z,18.30
2019-06-19T04:35:02.186Z,18.40
2019-06-19T04:37:49.874Z,18.50
2019-06-19T04:40:37.394Z,18.50
2019-06-19T04:43:24.651Z,18.50
2019-06-19T04:46:12.162Z,18.60
2019-06-19T04:48:59.800Z,18.70
2019-06-19T04:51:47.249Z,18.80
2019-06-19T04:54:34.494Z,18.90
2019-06-19T04:57:22.351Z,18.90
2019-06-19T05:00:11.067Z,19.00
2019-06-19T05:02:59.164Z,19.00
2019-06-19T05:05:46.627Z,19.10
2019-06-19T05:08:37.308Z,19.10
2019-06-19T05:11:24.826Z,19.10
2019-06-19T05:14:12.614Z,19.10
2019-06-19T05:17:00.116Z,19.10
2019-06-19T05:19:47.194Z,19.20
2019-06-19T05:22:34.541Z,19.20
2019-06-19T05:25:21.794Z,19.20
2019-06-19T05:28:09.231Z,19.30
2019-06-19T05:30:57.013Z,19.30
2019-06-19T05:33:44.712Z,19.40
2019-06-19T05:36:32.123Z,19.50
2019-06-19T05:39:19.390Z,19.60
2019-06-19T05:42:06.895Z,19.80
2019-06-19T05:44:54.414Z,19.90
2019-06-19T05:47:41.907Z,19.90
2019-06-19T05:50:30.097Z,19.90
2019-06-19T05:53:17.830Z,19.80
2019-06-19T05:56:05.351Z,19.80
2019-06-19T05:58:53.108Z,19.80
2019-06-19T06:01:41.034Z,19.80
2019-06-19T06:04:28.982Z,19.80
2019-06-19T06:07:16.663Z,19.70
2019-06-19T06:10:04.877Z,19.80
2019-06-19T06:12:52.503Z,19.80
2019-06-19T06:15:39.724Z,19.90
2019-06-19T06:18:27.211Z,19.90
2019-06-19T06:21:37.087Z,20.00
2019-06-19T06:24:24.930Z,20.00
2019-06-19T06:27:12.817Z,20.10
2019-06-19T06:29:59.886Z,20.10
2019-06-19T06:32:47.208Z,20.10
2019-06-19T06:35:34.958Z,20.20
2019-06-19T06:38:22.826Z,20.40
2019-06-19T06:41:10.314Z,20.50
2019-06-19T06:43:57.415Z,20.60
2019-06-19T06:46:44.704Z,20.70
2019-06-19T06:49:32.332Z,20.80
2019-06-19T06:52:19.749Z,20.90
2019-06-19T06:55:07.089Z,21.00
2019-06-19T06:57:55.004Z,21.00
2019-06-19T07:00:48.319Z,21.00
2019-06-19T07:03:35.635Z,21.10
2019-06-19T07:06:23.112Z,21.20
2019-06-19T07:09:10.546Z,21.40
2019-06-19T07:11:57.822Z,21.60
2019-06-19T07:14:45.596Z,21.70
2019-06-19T07:17:32.873Z,21.80
2019-06-19T07:20:20.634Z,21.90
2019-06-19T07:23:07.874Z,22.10
2019-06-19T07:25:55.670Z,22.20
2019-06-19T07:28:43.035Z,22.30
2019-06-19T07:31:30.434Z,22.50
2019-06-19T07:34:17.748Z,22.70
2019-06-19T07:37:05.526Z,22.90
2019-06-19T07:39:53.459Z,22.80
2019-06-19T07:42:40.859Z,23.00
2019-06-19T07:45:28.103Z,23.20
2019-06-19T07:48:15.738Z,23.40
2019-06-19T07:51:03.360Z,23.60
2019-06-19T07:53:50.996Z,23.70
2019-06-19T07:56:38.969Z,23.40
2019-06-19T07:59:26.707Z,23.40
2019-06-19T08:02:14.503Z,23.50
2019-06-19T08:05:02.304Z,23.60
2019-06-19T08:07:52.546Z,23.90
2019-06-19T08:10:39.407Z,24.00
2019-06-19T08:13:27.034Z,24.10
2019-06-19T08:16:14.664Z,24.00
2019-06-19T08:19:05.045Z,24.00
2019-06-19T08:21:51.424Z,23.90
2019-06-19T08:24:39.115Z,24.00
2019-06-19T08:27:26.925Z,24.20
2019-06-19T08:30:15.197Z,24.40
2019-06-19T08:33:02.776Z,24.30
2019-06-19T08:35:50.641Z,24.40
2019-06-19T08:38:38.274Z,24.50
2019-06-19T08:41:26.015Z,24.70
2019-06-19T08:44:13.899Z,24.70
2019-06-19T08:47:01.889Z,24.80
2019-06-19T08:49:49.466Z,24.50
2019-06-19T08:52:37.245Z,24.40
2019-06-19T08:55:25.463Z,24.60
2019-06-19T08:58:13.547Z,25.00
2019-06-19T09:01:01.551Z,25.00
2019-06-19T09:03:49.606Z,25.20
2019-06-19T09:06:37.381Z,25.40
2019-06-19T09:09:30.734Z,25.60
2019-06-19T09:12:18.582Z,25.80
2019-06-19T09:15:06.807Z,26.00
2019-06-19T09:17:54.717Z,26.00
2019-06-19T09:20:43.092Z,26.10
2019-06-19T09:23:31.008Z,26.50
2019-06-19T09:26:19.171Z,26.50
2019-06-19T09:29:07.130Z,26.60
2019-06-19T09:31:55.340Z,26.60
2019-06-19T09:34:50.562Z,26.60
2019-06-19T09:37:32.955Z,26.70
2019-06-19T09:40:20.823Z,26.80
2019-06-19T09:43:08.645Z,26.90
2019-06-19T09:45:56.781Z,26.90
2019-06-19T09:48:44.278Z,26.80
2019-06-19T09:51:32.056Z,26.70
2019-06-19T09:54:19.536Z,26.60
2019-06-19T09:57:06.771Z,26.90
2019-06-19T09:59:54.354Z,27.20
2019-06-19T10:02:42.115Z,27.40
2019-06-19T10:05:29.661Z,27.50
2019-06-19T10:08:16.927Z,27.50
2019-06-19T10:11:04.679Z,27.60
2019-06-19T10:13:52.178Z,27.50
2019-06-19T10:16:39.871Z,27.70
2019-06-19T10:19:27.150Z,27.60
2019-06-19T10:22:14.654Z,26.70
2019-06-19T10:25:02.184Z,26.40
2019-06-19T10:27:49.697Z,26.70
2019-06-19T10:30:38.518Z,27.00
2019-06-19T10:33:25.941Z,27.20
2019-06-19T10:36:13.174Z,27.40
2019-06-19T10:39:00.698Z,27.50
2019-06-19T10:41:47.931Z,27.70
2019-06-19T10:44:35.609Z,27.90
2019-06-19T10:47:23.116Z,28.00
2019-06-19T10:50:10.792Z,28.30
2019-06-19T10:52:58.583Z,28.00
2019-06-19T10:55:46.062Z,28.00
2019-06-19T10:58:33.329Z,28.10
2019-06-19T11:01:20.810Z,28.30
2019-06-19T11:04:08.350Z,28.60
2019-06-19T11:06:55.752Z,28.00
2019-06-19T11:09:43.158Z,28.30
2019-06-19T11:12:30.331Z,28.80
2019-06-19T11:15:18.781Z,29.10
2019-06-19T11:18:06.838Z,28.70
2019-06-19T11:20:54.503Z,28.30
2019-06-19T11:23:41.888Z,28.40
2019-06-19T11:26:29.279Z,28.50
2019-06-19T11:29:16.737Z,28.40
2019-06-19T11:32:04.589Z,28.30
2019-06-19T11:34:51.675Z,28.30
2019-06-19T11:37:39.161Z,28.10
2019-06-19T11:40:26.992Z,28.20
2019-06-19T11:43:14.510Z,28.40
2019-06-19T11:46:02.018Z,28.70
2019-06-19T11:48:49.671Z,28.90
2019-06-19T11:51:37.177Z,29.10
2019-06-19T11:54:24.898Z,28.50
2019-06-19T11:57:12.635Z,28.70
2019-06-19T12:00:00.290Z,28.80
2019-06-19T12:02:47.910Z,28.90
2019-06-19T12:05:35.462Z,29.10
2019-06-19T12:08:22.879Z,29.00
2019-06-19T12:11:10.598Z,28.90
2019-06-19T12:13:58.004Z,28.90
2019-06-19T12:16:45.404Z,28.90
2019-06-19T12:19:33.506Z,29.10
2019-06-19T12:22:21.307Z,29.50
2019-06-19T12:25:09.680Z,29.60
2019-06-19T12:27:57.047Z,29.30
2019-06-19T12:30:44.778Z,29.30
2019-06-19T12:33:32.842Z,29.10
2019-06-19T12:36:29.435Z,29.00
2019-06-19T12:39:09.766Z,29.40
2019-06-19T12:41:57.515Z,29.50
2019-06-19T12:44:45.295Z,29.70
2019-06-19T12:47:32.835Z,29.70
2019-06-19T12:50:21.081Z,29.50
2019-06-19T12:53:08.637Z,29.70
2019-06-19T12:55:56.422Z,29.60
2019-06-19T12:58:43.671Z,29.80
2019-06-19T13:01:31.495Z,29.90
2019-06-19T13:04:19.365Z,29.90
2019-06-19T13:07:06.978Z,29.80
2019-06-19T13:09:54.418Z,30.00
2019-06-19T13:12:41.936Z,30.20
2019-06-19T13:15:29.969Z,30.30
2019-06-19T13:18:18.241Z,30.30
2019-06-19T13:21:05.727Z,30.30
2019-06-19T13:23:53.214Z,30.60
2019-06-19T13:26:41.070Z,30.50
2019-06-19T13:29:28.796Z,30.10
2019-06-19T13:32:16.510Z,30.20
2019-06-19T13:35:04.586Z,30.40
2019-06-19T13:37:52.435Z,30.80
2019-06-19T13:40:40.160Z,31.30
2019-06-19T13:43:27.631Z,30.80
2019-06-19T13:46:15.176Z,30.40
2019-06-19T13:49:02.262Z,30.10
2019-06-19T13:51:49.868Z,29.50
2019-06-19T13:54:37.651Z,29.80
2019-06-19T13:57:25.370Z,30.00
2019-06-19T14:00:14.233Z,30.00
2019-06-19T14:03:01.896Z,30.30
2019-06-19T14:05:49.475Z,30.50
2019-06-19T14:08:37.103Z,30.60
2019-06-19T14:11:24.725Z,30.80
2019-06-19T14:14:12.281Z,30.80
2019-06-19T14:16:59.830Z,30.50
2019-06-19T14:19:47.035Z,30.10
2019-06-19T14:22:34.422Z,29.90
2019-06-19T14:25:22.173Z,29.70
2019-06-19T14:28:10.045Z,29.60
2019-06-19T14:30:57.482Z,29.40
2019-06-19T14:33:44.923Z,29.40
2019-06-19T14:36:32.494Z,29.40
2019-06-19T14:39:20.115Z,29.50
2019-06-19T14:42:07.284Z,29.50
2019-06-19T14:44:55.037Z,29.50
2019-06-19T14:47:42.548Z,29.70
2019-06-19T14:50:29.948Z,29.90
2019-06-19T14:53:17.473Z,30.00
2019-06-19T14:56:04.706Z,30.20
2019-06-19T14:58:52.399Z,30.20
2019-06-19T15:01:39.897Z,30.30
2019-06-19T15:04:27.368Z,30.10
2019-06-19T15:07:14.902Z,30.10
2019-06-19T15:10:02.742Z,30.50
2019-06-19T15:12:50.425Z,30.80
2019-06-19T15:15:38.449Z,30.90
2019-06-19T15:18:25.918Z,30.90
2019-06-19T15:21:13.157Z,31.00
2019-06-19T15:24:00.829Z,30.90
2019-06-19T15:26:48.287Z,30.70
2019-06-19T15:29:35.859Z,30.50
2019-06-19T15:32:23.003Z,30.70
2019-06-19T15:35:11.147Z,30.50
2019-06-19T15:38:11.290Z,30.50
2019-06-19T15:40:47.925Z,30.70
2019-06-19T15:43:35.607Z,30.40
2019-06-19T15:46:22.876Z,30.00
2019-06-19T15:49:10.504Z,30.10
2019-06-19T15:51:58.261Z,30.20
2019-06-19T15:54:45.569Z,30.70
2019-06-19T15:57:32.975Z,31.40
2019-06-19T16:00:20.840Z,32.00
2019-06-19T16:03:08.572Z,32.50
2019-06-19T16:05:56.319Z,33.10
2019-06-19T16:08:44.080Z,33.60
2019-06-19T16:11:32.252Z,34.60
2019-06-19T16:14:20.895Z,35.20
2019-06-19T16:17:09.012Z,36.30
2019-06-19T16:20:30.641Z,37.00
2019-06-19T16:26:40.746Z,37.40
2019-06-19T16:29:28.937Z,37.60
2019-06-19T16:32:16.897Z,37.50
2019-06-19T16:38:52.763Z,38.20
2019-06-19T16:41:56.959Z,38.70
2019-06-19T16:45:10.328Z,39.30
2019-06-19T16:47:59.704Z,38.70
2019-06-19T16:50:47.516Z,38.80
2019-06-19T16:53:36.816Z,38.90
2019-06-19T16:56:25.971Z,38.90
2019-06-19T16:59:24.688Z,38.80
2019-06-19T17:02:12.969Z,39.30
2019-06-19T17:05:01.042Z,39.20
2019-06-19T17:07:56.759Z,39.20
2019-06-19T17:10:44.594Z,39.30
2019-06-19T17:13:33.177Z,38.90
2019-06-19T17:19:50.159Z,39.00
2019-06-19T17:22:38.426Z,39.00
2019-06-19T17:25:29.930Z,38.60
2019-06-19T17:28:17.763Z,38.60
2019-06-19T17:31:12.169Z,38.40
2019-06-19T17:34:00.517Z,38.30
2019-06-19T17:36:58.340Z,37.80
2019-06-19T17:39:46.208Z,37.60
2019-06-19T17:42:34.160Z,36.90
2019-06-19T17:45:28.410Z,36.70
2019-06-19T17:48:15.915Z,36.30
2019-06-19T17:51:03.454Z,35.80
2019-06-19T17:53:50.602Z,34.60
2019-06-19T17:56:38.386Z,33.80
2019-06-19T17:59:25.671Z,32.90
2019-06-19T18:02:13.218Z,32.10
2019-06-19T18:05:01.134Z,31.50
2019-06-19T18:07:49.070Z,31.00
2019-06-19T18:10:36.992Z,30.50
2019-06-19T18:13:24.983Z,30.10
2019-06-19T18:16:14.851Z,29.80
2019-06-19T18:19:02.892Z,29.50
2019-06-19T18:21:50.643Z,29.20
2019-06-19T18:27:55.195Z,28.90
2019-06-19T18:30:46.435Z,28.70
2019-06-19T18:33:34.481Z,28.50
2019-06-19T18:36:23.684Z,28.30
2019-06-19T18:39:12.212Z,28.20
2019-06-19T18:42:06.159Z,27.90
2019-06-19T18:44:54.215Z,27.70
2019-06-19T18:47:45.118Z,27.40
2019-06-19T18:50:34.711Z,27.20
2019-06-19T18:53:22.853Z,26.90
2019-06-19T18:56:11.302Z,26.60
2019-06-19T18:59:05.649Z,26.40
2019-06-19T19:01:53.327Z,26.20
2019-06-19T19:04:41.259Z,26.00
2019-06-19T19:07:30.404Z,25.70
2019-06-19T19:10:18.671Z,25.50
2019-06-19T19:13:06.381Z,25.30
2019-06-19T19:15:54.210Z,25.10
2019-06-19T19:18:42.270Z,24.90
2019-06-19T19:21:30.288Z,24.70
2019-06-19T19:24:17.930Z,24.50
2019-06-19T19:27:05.819Z,24.30
2019-06-19T19:29:53.735Z,24.10
2019-06-19T19:32:40.932Z,24.00
2019-06-19T19:35:28.811Z,23.80
2019-06-19T19:38:16.460Z,23.60
2019-06-19T19:41:03.723Z,23.50
2019-06-19T19:43:54.765Z,23.40
2019-06-19T19:46:40.511Z,22.90
2019-06-19T19:49:27.898Z,22.50
2019-06-19T19:52:15.457Z,22.60
2019-06-19T19:55:02.710Z,22.60
2019-06-19T19:57:50.282Z,22.40
2019-06-19T20:00:42.217Z,22.20
2019-06-19T20:03:29.938Z,22.00
2019-06-19T20:06:17.221Z,21.90
2019-06-19T20:09:07.650Z,21.70
2019-06-19T20:11:55.361Z,21.50
2019-06-19T20:14:43.108Z,21.40
2019-06-19T20:17:30.919Z,21.60
2019-06-19T20:20:18.701Z,21.50
2019-06-19T20:23:06.025Z,21.40
2019-06-19T20:25:53.375Z,21.30
2019-06-19T20:28:41.391Z,21.20
2019-06-19T20:31:28.920Z,21.00
2019-06-19T20:34:16.773Z,21.00
2019-06-19T20:37:04.298Z,20.90
2019-06-19T20:39:51.754Z,21.00
2019-06-19T20:42:39.284Z,20.90
2019-06-19T20:45:27.019Z,20.80
2019-06-19T20:48:14.479Z,20.70
2019-06-19T20:51:02.302Z,20.60
2019-06-19T20:53:50.051Z,20.50
2019-06-19T20:56:37.643Z,20.40
2019-06-19T20:59:34.855Z,20.30
2019-06-19T21:02:14.694Z,20.10
2019-06-19T21:05:02.546Z,20.20
2019-06-19T21:07:53.010Z,19.80
2019-06-19T21:10:40.496Z,19.60
2019-06-19T21:13:28.313Z,19.60
2019-06-19T21:16:15.871Z,19.60
2019-06-19T21:19:03.770Z,19.40
2019-06-19T21:21:51.190Z,19.30
2019-06-19T21:24:38.490Z,19.30
2019-06-19T21:27:26.292Z,19.40
2019-06-19T21:30:13.848Z,19.30
2019-06-19T21:33:01.561Z,19.20
2019-06-19T21:35:49.002Z,19.00
2019-06-19T21:38:36.282Z,19.00
2019-06-19T21:41:36.788Z,19.00
2019-06-19T21:44:18.810Z,18.90
2019-06-19T21:47:02.525Z,18.80
2019-06-19T21:49:49.758Z,18.70
2019-06-19T21:52:37.265Z,18.70
2019-06-19T21:55:24.865Z,18.60
2019-06-19T21:58:12.619Z,18.50
2019-06-19T22:01:01.852Z,18.50
2019-06-19T22:03:49.576Z,18.40
2019-06-19T22:06:36.961Z,18.40
2019-06-19T22:09:24.795Z,18.30
2019-06-19T22:12:12.600Z,18.40
2019-06-19T22:14:59.828Z,18.40
2019-06-19T22:17:47.141Z,18.20
2019-06-19T22:20:34.752Z,18.00
2019-06-19T22:23:22.768Z,18.00
2019-06-19T22:26:10.457Z,18.00
2019-06-19T22:28:58.145Z,18.00
2019-06-19T22:31:45.749Z,18.10
2019-06-19T22:34:33.653Z,18.20
2019-06-19T22:37:21.168Z,18.20
2019-06-19T22:40:09.083Z,18.30
2019-06-19T22:42:56.944Z,18.40
2019-06-19T22:45:44.245Z,18.40
2019-06-19T22:48:31.761Z,18.50
2019-06-19T22:51:19.567Z,18.40
2019-06-19T22:54:07.506Z,18.40
2019-06-19T22:56:55.179Z,18.30
2019-06-19T22:59:42.443Z,18.30
2019-06-19T23:02:38.674Z,18.30
2019-06-19T23:05:26.337Z,17.90
2019-06-19T23:08:13.902Z,17.70
2019-06-19T23:11:01.631Z,17.20
2019-06-19T23:13:49.309Z,17.80
2019-06-19T23:16:36.829Z,18.60
2019-06-19T23:19:27.346Z,19.10
2019-06-19T23:22:15.171Z,19.50
2019-06-19T23:25:02.604Z,19.80
2019-06-19T23:27:50.318Z,20.00
2019-06-19T23:30:37.539Z,20.20
2019-06-19T23:33:25.222Z,20.20
2019-06-19T23:36:12.643Z,20.30
2019-06-19T23:39:00.061Z,20.20
2019-06-19T23:41:47.285Z,20.00
2019-06-19T23:44:35.048Z,19.80
2019-06-19T23:47:22.240Z,19.70
2019-06-19T23:50:10.097Z,19.60
2019-06-19T23:52:57.577Z,19.50
2019-06-19T23:55:45.304Z,19.40
2019-06-19T23:58:32.715Z,19.20
